Terminal Aerodrome Forecast
Issued by NWS Cleveland, OH

Home | Current Version | Previous Version | Graphics & Text | Print | Product List | Glossary Off
Versions: 1 2 3 4 5 6 7 8 9 10 11 12 13 14 15 16

986
FTUS41 KCLE 231458 AAA
TAFCAK
TAF AMD
KCAK 231458Z 2315/2412 12009KT P6SM SCT250
     FM240200 11006KT P6SM BKN200
     FM241000 15009KT 6SM -SHRA BKN025 OVC050=

USA.gov is the U.S. government's official web portal to all federal, state and local government web resources and services.